Acme, Washington
Current Conditions -  °F | °C
As of 8:18 PM on Saturday 25 Oct 2014 (Local Time) from KBLI Reporting Station
Light Rain Light Rain  
Wind Chill: 55°   Ceiling: 900
Heat Index: 55°   Visibility: 6mi
Dew Point: 52°   Wind: 10mph
Humidity: 88%   Direction: 180°S
Pressure: 29.27"   Gusts: 26mph
Location:  48.72°N, 122.21°W
Report Text: KBLI 260318Z 18009G23KT 6SM -RA BR FEW004 BKN009 OVC023 13/11 A2927 RMK AO2 WSHFT 0258 PRESRR P0002
Loading
Personal Weather Stations






























Interactive Weather Map
Tropical Storm Tracking
New forecast layout! Learn more

10-Day Weather Forecast

Advertisements
Track Severe Weather on mobile